Trenton, GA

1:14 PM CDT on September 18, 2014 (GMT -0500)
New Home | Change Station
CLOSE
Current Station
Personal Weather Station
Location: Trenton, GA
Elevation: 1470 ft
Nearby Weather Stations

Elev 1470 ft 34.98 °N, 85.51 °W | Updated 49 seconds ago

Mostly Cloudy
Mostly Cloudy
78.7 °F
Feels Like 80 °F
N
0.0
Wind Variable Wind from ESE
Gusts 0.0 mph

Today
High -- | Low -- °F
--% Chance of Precip.
Yesterday
High -- | Low -- °F
Precip. -- in
6:27 AM 6:44 PM
Waning Crescent, 25% visible
Pressure 29.99 in
Visibility 10.0 miles
Clouds Scattered Clouds 9000 ft
Scattered Clouds 11000 ft
Mostly Cloudy 30000 ft
Heat Index 80 °F
Dew Point 58 °F
Humidity 49%
Rainfall 0.00 in
Snow Depth Not available.
UV 5 out of 12
Pollen 7.10 out of 12
Air Quality Not available.
Flu Activity Not available.
METAR KCHA 181753Z 32005KT 10SM SCT090 SCT110 BKN300 27/12 A3000 RMK AO2 SLP154 T02670122 10272 20161 58007

More Conditions Fewer Conditions

Pressure 29.99 in
Visibility 10.0 miles
Clouds Scattered Clouds 9000 ft
Scattered Clouds 11000 ft
Mostly Cloudy 30000 ft
Heat Index 80 °F
Dew Point 58 °F
Humidity 49%
Rainfall 0.00 in
Snow Depth Not available.
UV 5 out of 12
Pollen 7.10 out of 12
Air Quality Not available.
Flu Activity Not available.
METAR KCHA 181753Z 32005KT 10SM SCT090 SCT110 BKN300 27/12 A3000 RMK AO2 SLP154 T02670122 10272 20161 58007

More Conditions Fewer Conditions

10-Day Weather Forecast

Almanac

Astronomy

Sep. 18, 2014 Rise Set
Actual Time 6:27 AM CDT 6:44 PM CDT
Civil Twilight 6:01 AM CDT 7:09 PM CDT
Nautical Twilight 5:32 AM CDT 7:39 PM CDT
Astronomical Twilight 5:02 AM CDT 8:09 PM CDT
Moon 1:27 AM CDT 3:27 PM CDT
Length of Visible Light 13h 08m
Length of Day
12h 17m
Tomorrow will be 2m 11s shorter.
Waning Crescent, 25% of the Moon is Illuminated
Today
Waning Crescent
Sep 24
New
Oct 1
First Quarter
Oct 8
Full
Oct 15
Last Quarter

Today's Extremes

State Highs State Lows

Community

WunderPhotos

Upload Photos

1,754,410 photos uploaded!

Nearby

Snow Depth

Station Depth Elevation
No new snow has been reported.

Earthquake Activity

City Distance Mag. Time & Date
No recent earthquake activity has been reported nearby.
Minimum magnitude displayed is 2.5.

Coastal Water Temperatures

Place Temperature
No Stations Reporting

Nearby Weather Stations